Terminal Aerodrome Forecast
Issued by NWS

Home | Current Version | Previous Version | Text Only | Print | Product List | Glossary On
Versions: 1 2 3 4 5 6 7 8 9 10 11 12 13 14 15 16
000
FTUS42 KTBW 191742
TAFLAL
TAF
KLAL 191742Z 1918/2018 20012G20KT P6SM SCT040 BKN250
     FM192100 24012G20KT P6SM SCT050 BKN250
     FM200000 24005KT P6SM SCT050 SCT150 BKN250
     FM200400 20004KT P6SM SCT030 BKN150
     FM200800 17004KT P6SM SCT020 BKN080
     FM201500 23008KT P6SM VCSH SCT025 BKN040=

USA.gov is the U.S. government's official web portal to all federal, state and local government web resources and services.